Time;durP1;ratioP1;P1;durP2;ratioP2;P2;SDS_P1;SDS_P2;PMS_P1;PMS_P2;Temp;Humidity;BMP_temperature;BMP_pressure;BME280_temperature;BME280_humidity;BME280_pressure;Samples;Min_cycle;Max_cycle;Signal;HPM_P1;HPM_P2
2023/08/27 00:01:22;;;;;;;3.80;2.83;;;14.40;99.90;;;;;;5044737;28;20451;-72
2023/08/27 00:03:47;;;;;;;4.38;3.80;;;14.40;99.90;;;;;;5046695;28;20076;-72
2023/08/27 00:06:13;;;;;;;3.78;2.85;;;14.40;99.90;;;;;;5050612;28;20491;-71
2023/08/27 00:08:38;;;;;;;6.18;3.13;;;14.40;99.90;;;;;;5048566;28;20055;-71
2023/08/27 00:11:05;;;;;;;5.47;3.05;;;14.40;99.90;;;;;;5066491;28;20253;-72
2023/08/27 00:13:31;;;;;;;3.53;3.05;;;14.40;99.90;;;;;;5065862;28;20041;-72
2023/08/27 00:15:56;;;;;;;3.95;2.80;;;14.30;99.90;;;;;;5048142;28;20037;-72
2023/08/27 00:18:22;;;;;;;3.72;2.92;;;14.30;99.90;;;;;;5047584;28;20399;-72
2023/08/27 00:20:48;;;;;;;3.60;3.00;;;14.30;99.90;;;;;;5047049;28;20178;-71
2023/08/27 00:23:15;;;;;;;3.55;2.65;;;14.30;99.90;;;;;;5065602;28;20068;-72
2023/08/27 00:25:43;;;;;;;3.90;2.60;;;14.20;99.90;;;;;;5047725;28;20130;-73
2023/08/27 00:28:11;;;;;;;3.55;2.80;;;14.20;99.90;;;;;;5065417;28;20068;-73
2023/08/27 00:30:37;;;;;;;5.30;2.30;;;14.20;99.90;;;;;;5066346;28;20039;-75
2023/08/27 00:33:03;;;;;;;3.45;3.00;;;14.20;99.90;;;;;;5065688;28;20033;-74
2023/08/27 00:35:29;;;;;;;4.75;3.00;;;14.20;99.90;;;;;;5046744;28;20083;-71
2023/08/27 00:37:54;;;;;;;4.43;3.13;;;14.20;99.90;;;;;;5065327;28;20387;-71
2023/08/27 00:40:20;;;;;;;4.82;3.45;;;14.20;99.90;;;;;;5047195;28;20044;-73
2023/08/27 00:42:45;;;;;;;4.63;2.83;;;14.20;99.90;;;;;;5047649;28;20475;-71
2023/08/27 00:45:11;;;;;;;3.28;2.72;;;14.20;99.90;;;;;;5065201;28;20033;-73
2023/08/27 00:47:38;;;;;;;7.22;2.88;;;14.20;99.90;;;;;;5047766;28;20048;-72
2023/08/27 00:50:09;;;;;;;4.15;2.85;;;14.20;99.90;;;;;;5047273;28;20056;-71
2023/08/27 00:52:34;;;;;;;3.05;2.63;;;14.20;99.90;;;;;;5055955;28;20040;-71
2023/08/27 00:55:03;;;;;;;4.80;2.92;;;14.20;99.90;;;;;;5085581;28;20059;-73
2023/08/27 00:57:29;;;;;;;4.78;3.15;;;14.20;99.90;;;;;;5050624;28;20040;-72
2023/08/27 00:59:57;;;;;;;5.22;3.42;;;14.20;99.90;;;;;;5085111;28;20044;-71
2023/08/27 01:02:23;;;;;;;3.60;2.47;;;14.20;99.90;;;;;;5053721;28;20059;-73
2023/08/27 01:04:49;;;;;;;4.18;2.92;;;14.20;99.90;;;;;;5045924;28;20115;-71
2023/08/27 01:07:23;;;;;;;5.57;2.95;;;14.20;99.90;;;;;;5046354;28;20049;-71
2023/08/27 01:10:17;;;;;;;4.88;3.25;;;14.20;99.90;;;;;;5063948;28;20069;-71
2023/08/27 01:13:03;;;;;;;4.93;3.15;;;14.20;99.90;;;;;;5065254;28;20045;-71
2023/08/27 01:15:29;;;;;;;6.38;2.95;;;14.20;99.90;;;;;;5047149;28;20094;-71
2023/08/27 01:17:56;;;;;;;3.80;3.00;;;14.30;99.90;;;;;;5033999;28;20040;-72
2023/08/27 01:20:22;;;;;;;4.35;3.22;;;14.30;99.90;;;;;;5083752;28;20040;-73
2023/08/27 01:22:47;;;;;;;3.63;3.03;;;14.30;99.90;;;;;;5067172;28;20048;-71
2023/08/27 01:25:18;;;;;;;7.53;3.10;;;14.30;99.90;;;;;;5084495;28;20557;-71
2023/08/27 01:28:11;;;;;;;5.28;3.45;;;14.30;99.90;;;;;;5085021;28;20512;-73
2023/08/27 01:30:59;;;;;;;8.35;3.75;;;14.30;99.90;;;;;;5066788;28;20075;-73
2023/08/27 01:33:26;;;;;;;3.72;2.88;;;14.30;99.90;;;;;;5084497;28;20243;-70
2023/08/27 01:35:54;;;;;;;10.32;4.00;;;14.30;99.90;;;;;;5077923;28;20102;-71
2023/08/27 01:38:20;;;;;;;5.75;3.83;;;14.20;99.90;;;;;;5046636;28;20036;-71
2023/08/27 01:40:45;;;;;;;4.35;3.28;;;14.30;99.90;;;;;;5064137;28;20049;-72
2023/08/27 01:43:11;;;;;;;4.68;3.40;;;14.30;99.90;;;;;;5063898;28;20504;-73
2023/08/27 01:45:36;;;;;;;4.78;3.08;;;14.30;99.90;;;;;;5047121;28;20110;-71
2023/08/27 01:48:02;;;;;;;6.47;3.58;;;14.30;99.90;;;;;;5063946;28;20032;-73
2023/08/27 01:50:28;;;;;;;4.28;3.38;;;14.30;99.90;;;;;;5063329;28;20395;-71
2023/08/27 01:52:54;;;;;;;5.95;3.63;;;14.30;99.90;;;;;;5064254;28;20036;-74
2023/08/27 01:55:20;;;;;;;7.50;4.00;;;14.30;99.90;;;;;;5045881;28;20106;-73
2023/08/27 01:57:45;;;;;;;5.65;3.75;;;14.30;99.90;;;;;;5046472;28;20744;-71
2023/08/27 02:00:12;;;;;;;5.18;3.60;;;14.30;99.90;;;;;;5063628;28;20062;-71
2023/08/27 02:02:37;;;;;;;6.20;4.15;;;14.30;99.90;;;;;;5063397;28;20037;-74
2023/08/27 02:05:04;;;;;;;5.85;3.72;;;14.30;99.90;;;;;;5063140;28;20044;-71
2023/08/27 02:07:30;;;;;;;4.63;3.85;;;14.30;99.90;;;;;;5045347;28;20057;-72
2023/08/27 02:09:56;;;;;;;4.88;3.67;;;14.30;99.90;;;;;;5063945;28;20080;-71
2023/08/27 02:12:22;;;;;;;5.90;2.70;;;14.30;99.90;;;;;;5062774;28;20068;-73
2023/08/27 02:14:47;;;;;;;6.15;3.67;;;14.30;99.90;;;;;;5063929;28;20040;-71
2023/08/27 02:17:13;;;;;;;4.78;3.97;;;14.30;99.90;;;;;;5045726;28;20049;-70
2023/08/27 02:19:38;;;;;;;5.00;3.45;;;14.20;99.90;;;;;;5062558;28;20111;-74
2023/08/27 02:22:04;;;;;;;4.72;3.63;;;14.20;99.90;;;;;;5064182;28;20119;-71
2023/08/27 02:24:30;;;;;;;6.05;3.65;;;14.20;99.90;;;;;;5062968;28;20044;-71
2023/08/27 02:26:55;;;;;;;5.82;4.10;;;14.20;99.90;;;;;;5046025;28;20088;-70
2023/08/27 02:29:21;;;;;;;5.38;3.38;;;14.20;99.90;;;;;;5063318;28;20344;-71
2023/08/27 02:31:46;;;;;;;3.58;3.10;;;14.10;99.90;;;;;;5063890;28;20048;-71
2023/08/27 02:34:12;;;;;;;5.28;3.38;;;14.10;99.90;;;;;;5044343;28;20419;-70
2023/08/27 02:36:37;;;;;;;6.03;3.88;;;14.20;99.90;;;;;;5063312;28;20113;-74
2023/08/27 02:39:03;;;;;;;5.25;3.72;;;14.10;99.90;;;;;;5063688;28;20036;-71
2023/08/27 02:41:29;;;;;;;4.78;3.72;;;14.10;99.90;;;;;;5063049;28;20059;-71
2023/08/27 02:43:54;;;;;;;4.10;3.08;;;14.10;99.90;;;;;;5063666;28;20080;-71
2023/08/27 02:46:20;;;;;;;6.07;3.85;;;14.10;99.90;;;;;;5045174;28;20044;-71
2023/08/27 02:48:45;;;;;;;5.63;3.95;;;14.10;99.90;;;;;;5063309;28;20040;-72
2023/08/27 02:51:11;;;;;;;5.78;4.03;;;14.00;99.90;;;;;;5062332;28;20039;-72
2023/08/27 02:53:37;;;;;;;3.92;3.13;;;14.00;99.90;;;;;;5045432;28;20441;-73
2023/08/27 02:56:03;;;;;;;4.82;3.28;;;14.00;99.90;;;;;;5063414;28;20116;-71
2023/08/27 02:58:28;;;;;;;6.90;3.70;;;14.00;99.90;;;;;;5044624;28;20084;-71
2023/08/27 03:00:54;;;;;;;5.50;4.30;;;14.00;99.90;;;;;;5045323;28;20044;-73
2023/08/27 03:03:19;;;;;;;6.05;4.60;;;14.00;99.90;;;;;;5044631;28;20097;-72
2023/08/27 03:05:45;;;;;;;5.10;4.03;;;14.00;99.90;;;;;;5027177;28;20411;-73
2023/08/27 03:08:11;;;;;;;7.30;3.90;;;14.00;99.90;;;;;;5045048;28;20060;-70
2023/08/27 03:10:37;;;;;;;6.70;4.22;;;14.00;99.90;;;;;;5062822;28;20079;-71
2023/08/27 03:13:02;;;;;;;5.28;3.55;;;14.00;99.90;;;;;;5063308;28;20040;-71
2023/08/27 03:15:28;;;;;;;6.18;4.50;;;14.00;99.90;;;;;;5045063;28;20118;-71
2023/08/27 03:17:54;;;;;;;4.20;3.67;;;14.00;99.90;;;;;;5044793;28;20045;-74
2023/08/27 03:20:19;;;;;;;4.47;3.65;;;14.00;99.90;;;;;;5061837;28;20123;-71
2023/08/27 03:22:45;;;;;;;7.55;3.60;;;14.00;99.90;;;;;;5044786;28;20518;-71
2023/08/27 03:25:10;;;;;;;4.85;3.67;;;14.00;99.90;;;;;;5044430;28;20041;-71
2023/08/27 03:27:36;;;;;;;4.93;3.92;;;14.00;99.90;;;;;;5044775;28;20040;-71
2023/08/27 03:30:03;;;;;;;8.43;3.88;;;14.10;99.90;;;;;;5063217;28;20041;-72
2023/08/27 03:32:29;;;;;;;4.88;3.58;;;14.00;99.90;;;;;;5062513;28;20075;-71
2023/08/27 03:34:55;;;;;;;9.43;5.43;;;14.10;99.90;;;;;;5061329;28;20494;-72
2023/08/27 03:37:20;;;;;;;6.15;4.15;;;14.00;99.90;;;;;;5062689;28;20063;-71
2023/08/27 03:39:46;;;;;;;5.68;4.13;;;14.10;99.90;;;;;;5044655;28;20094;-70
2023/08/27 03:42:12;;;;;;;7.25;4.15;;;14.00;99.90;;;;;;5062539;28;20115;-73
2023/08/27 03:44:37;;;;;;;6.97;3.53;;;14.10;99.90;;;;;;5062406;28;20627;-75
2023/08/27 03:47:04;;;;;;;5.20;4.03;;;14.10;99.90;;;;;;5062922;28;20119;-72
2023/08/27 03:49:29;;;;;;;6.75;4.38;;;14.10;99.90;;;;;;5061440;28;20041;-74
2023/08/27 03:51:55;;;;;;;5.78;4.32;;;14.10;99.90;;;;;;5062169;28;20040;-71
2023/08/27 03:54:20;;;;;;;6.72;4.30;;;14.20;99.90;;;;;;5062202;28;20045;-73
2023/08/27 03:56:46;;;;;;;7.05;4.18;;;14.20;99.90;;;;;;5062560;28;20236;-71
2023/08/27 03:59:12;;;;;;;6.93;4.78;;;14.20;99.90;;;;;;5043914;28;20052;-72
2023/08/27 04:01:37;;;;;;;9.40;4.35;;;14.20;99.90;;;;;;5062757;28;20094;-75
2023/08/27 04:04:03;;;;;;;5.15;4.03;;;14.20;99.90;;;;;;5061307;28;20149;-71
2023/08/27 04:06:29;;;;;;;7.93;4.78;;;14.20;99.90;;;;;;5052828;28;20068;-71
2023/08/27 04:08:54;;;;;;;5.47;4.40;;;14.20;99.90;;;;;;5024515;28;20053;-70
2023/08/27 04:11:20;;;;;;;6.53;3.55;;;14.20;99.90;;;;;;5023942;28;20495;-71
2023/08/27 04:13:45;;;;;;;7.00;4.20;;;14.30;99.90;;;;;;5024580;28;20044;-71
2023/08/27 04:16:12;;;;;;;8.02;4.70;;;14.30;99.90;;;;;;5042068;28;20072;-72
2023/08/27 04:18:38;;;;;;;8.07;4.50;;;14.30;99.90;;;;;;5024238;28;20052;-74
2023/08/27 04:21:04;;;;;;;5.72;4.07;;;14.30;99.90;;;;;;5042150;28;20530;-71
2023/08/27 04:23:30;;;;;;;6.70;4.20;;;14.30;99.90;;;;;;5041623;28;20048;-71
2023/08/27 04:25:56;;;;;;;6.50;4.57;;;14.30;99.90;;;;;;5042531;28;20040;-71
2023/08/27 04:28:22;;;;;;;7.53;3.95;;;14.30;99.90;;;;;;5041756;28;20485;-71
2023/08/27 04:30:48;;;;;;;7.43;4.47;;;14.30;99.90;;;;;;5024509;28;20399;-72
2023/08/27 04:33:15;;;;;;;7.50;4.18;;;14.30;99.90;;;;;;5041801;28;20460;-71
2023/08/27 04:35:40;;;;;;;11.25;4.60;;;14.30;99.90;;;;;;5040999;28;20124;-72
2023/08/27 04:38:06;;;;;;;7.15;4.65;;;14.30;99.90;;;;;;5042509;28;20125;-71
2023/08/27 04:40:32;;;;;;;7.85;4.57;;;14.30;99.90;;;;;;5041421;28;20075;-73
2023/08/27 04:42:58;;;;;;;6.45;4.22;;;14.30;99.90;;;;;;5042047;28;20558;-71
2023/08/27 04:45:24;;;;;;;8.88;4.95;;;14.40;99.90;;;;;;5042367;28;20086;-70
2023/08/27 04:47:50;;;;;;;8.68;4.57;;;14.30;99.90;;;;;;5045602;28;20029;-73
2023/08/27 04:50:15;;;;;;;6.22;3.90;;;14.40;99.90;;;;;;5044760;28;20049;-71
2023/08/27 04:52:41;;;;;;;9.55;4.40;;;14.40;99.90;;;;;;5045005;28;20591;-72
2023/08/27 04:55:07;;;;;;;7.78;3.97;;;14.40;99.90;;;;;;5046325;28;20055;-71
2023/08/27 04:57:34;;;;;;;6.40;4.97;;;14.40;99.90;;;;;;5045492;28;20033;-71
2023/08/27 05:00:09;;;;;;;5.82;3.83;;;14.40;99.90;;;;;;5044940;28;20051;-71
2023/08/27 05:02:35;;;;;;;7.13;4.82;;;14.40;99.90;;;;;;5045069;28;20051;-72
2023/08/27 05:05:01;;;;;;;6.90;4.53;;;14.50;99.90;;;;;;5043984;28;20104;-72
2023/08/27 05:07:27;;;;;;;5.75;3.53;;;14.50;99.90;;;;;;5061874;28;20056;-75
2023/08/27 05:09:52;;;;;;;7.75;4.93;;;14.50;99.90;;;;;;5047149;28;20118;-72
2023/08/27 05:12:18;;;;;;;8.77;4.45;;;14.50;99.90;;;;;;5065141;28;20072;-71
2023/08/27 05:14:43;;;;;;;8.65;4.57;;;14.50;99.90;;;;;;5064591;28;20048;-72
2023/08/27 05:17:10;;;;;;;8.50;4.43;;;14.60;99.90;;;;;;5047163;28;20075;-72
2023/08/27 05:19:36;;;;;;;7.43;5.35;;;14.60;99.90;;;;;;5064237;28;20098;-72
2023/08/27 05:22:02;;;;;;;8.63;4.38;;;14.60;99.90;;;;;;5046577;28;20502;-72
2023/08/27 05:24:27;;;;;;;6.80;4.53;;;14.70;99.90;;;;;;5065020;28;20149;-70
2023/08/27 05:26:53;;;;;;;7.57;4.30;;;14.70;99.90;;;;;;5064947;28;20120;-71
2023/08/27 05:29:18;;;;;;;8.57;4.20;;;14.70;99.90;;;;;;5064648;28;20099;-73
2023/08/27 05:31:44;;;;;;;7.57;4.90;;;14.70;99.90;;;;;;5064569;28;20047;-71
2023/08/27 05:34:10;;;;;;;6.90;5.05;;;14.70;99.90;;;;;;5045950;28;20060;-72
2023/08/27 05:36:36;;;;;;;6.63;4.22;;;14.70;99.90;;;;;;5047383;28;20044;-71
2023/08/27 05:39:02;;;;;;;8.45;5.82;;;14.70;99.90;;;;;;5064472;28;20560;-73
2023/08/27 05:41:28;;;;;;;11.02;4.88;;;14.70;99.90;;;;;;5063956;28;20048;-71
2023/08/27 05:43:54;;;;;;;12.13;5.85;;;14.70;99.90;;;;;;5046468;28;20230;-70
2023/08/27 05:46:19;;;;;;;9.18;4.90;;;14.70;99.90;;;;;;5046293;28;20455;-73
2023/08/27 05:48:45;;;;;;;10.00;4.80;;;14.70;99.90;;;;;;5063527;28;20036;-71
2023/08/27 05:51:11;;;;;;;9.68;5.95;;;14.70;99.90;;;;;;5046043;28;20067;-71
2023/08/27 05:53:36;;;;;;;9.98;5.07;;;14.70;99.90;;;;;;5046765;28;20479;-73
2023/08/27 05:56:02;;;;;;;6.53;4.75;;;14.70;99.90;;;;;;5063875;28;20496;-71
2023/08/27 05:58:27;;;;;;;14.18;6.35;;;14.70;99.90;;;;;;5063951;28;20052;-72
2023/08/27 06:00:54;;;;;;;11.70;5.00;;;14.70;99.90;;;;;;5045767;28;20048;-70
2023/08/27 06:03:20;;;;;;;9.45;5.82;;;14.70;99.90;;;;;;5045609;28;20110;-72
2023/08/27 06:05:46;;;;;;;9.43;4.82;;;14.70;99.90;;;;;;5060408;28;20052;-73
2023/08/27 06:08:12;;;;;;;11.23;5.72;;;14.70;99.90;;;;;;5025625;28;20563;-71
2023/08/27 06:10:37;;;;;;;11.63;5.95;;;14.70;99.90;;;;;;5044333;28;20052;-75
2023/08/27 06:13:03;;;;;;;9.00;5.13;;;14.70;99.90;;;;;;5044154;28;20488;-72
2023/08/27 06:15:30;;;;;;;8.38;4.88;;;14.70;99.90;;;;;;5025295;28;20079;-71
2023/08/27 06:18:00;;;;;;;8.43;5.28;;;14.70;99.90;;;;;;5010115;28;20420;-72
2023/08/27 06:20:26;;;;;;;9.60;5.05;;;14.70;99.90;;;;;;5042882;28;20045;-73
2023/08/27 06:22:51;;;;;;;9.27;6.63;;;14.70;99.90;;;;;;5033033;28;20501;-71
2023/08/27 06:25:17;;;;;;;11.57;5.50;;;14.70;99.90;;;;;;5064247;28;20040;-73
2023/08/27 06:27:42;;;;;;;9.35;5.15;;;14.70;99.90;;;;;;5045782;28;20236;-73
2023/08/27 06:30:09;;;;;;;10.68;5.97;;;14.80;99.90;;;;;;5045826;28;20506;-74
2023/08/27 06:32:34;;;;;;;10.43;5.80;;;14.80;99.90;;;;;;5063780;28;20102;-70
2023/08/27 06:35:00;;;;;;;12.25;5.63;;;14.80;99.90;;;;;;5062505;28;20657;-71
2023/08/27 06:37:26;;;;;;;12.63;6.15;;;14.90;99.90;;;;;;5028796;28;20036;-71
2023/08/27 06:39:51;;;;;;;12.13;5.93;;;14.90;99.90;;;;;;5045948;28;20262;-71
2023/08/27 06:42:17;;;;;;;12.00;5.90;;;15.00;99.90;;;;;;5045513;28;20048;-72
2023/08/27 06:44:43;;;;;;;11.95;6.28;;;15.00;99.90;;;;;;5046000;28;20041;-71
2023/08/27 06:47:08;;;;;;;11.85;5.40;;;15.00;99.90;;;;;;5062492;28;20101;-74
2023/08/27 06:49:35;;;;;;;6.38;4.03;;;15.00;99.90;;;;;;5063241;28;20043;-72
2023/08/27 06:52:00;;;;;;;8.38;4.50;;;15.00;99.90;;;;;;5029315;28;20538;-71
2023/08/27 06:54:26;;;;;;;7.50;4.25;;;15.00;99.90;;;;;;5063005;28;20136;-73
2023/08/27 06:56:52;;;;;;;9.05;4.40;;;15.10;99.90;;;;;;5063777;28;20072;-71
2023/08/27 06:59:17;;;;;;;10.20;4.68;;;15.00;99.90;;;;;;5062987;28;20075;-71
2023/08/27 07:01:43;;;;;;;8.95;4.57;;;15.10;99.90;;;;;;5063082;28;20388;-74
2023/08/27 07:04:08;;;;;;;9.00;3.78;;;15.00;99.90;;;;;;5062018;28;20517;-73
2023/08/27 07:06:34;;;;;;;7.82;4.03;;;15.10;99.90;;;;;;5029198;28;20059;-71
2023/08/27 07:09:00;;;;;;;9.23;3.95;;;15.10;99.90;;;;;;5062351;28;20494;-72
2023/08/27 07:11:26;;;;;;;7.20;3.85;;;15.10;99.90;;;;;;5062740;28;20517;-72
2023/08/27 07:13:53;;;;;;;8.98;4.43;;;15.10;99.90;;;;;;5063235;28;20049;-73
2023/08/27 07:16:19;;;;;;;7.15;4.72;;;15.20;99.90;;;;;;5044480;28;20147;-71
2023/08/27 07:18:45;;;;;;;8.63;4.65;;;15.20;99.90;;;;;;5052313;28;20126;-73
2023/08/27 07:21:11;;;;;;;10.88;3.90;;;15.20;99.90;;;;;;5063631;28;20516;-71
2023/08/27 07:23:36;;;;;;;10.00;4.25;;;15.20;99.90;;;;;;5045074;28;20089;-72
2023/08/27 07:26:03;;;;;;;8.57;3.25;;;15.20;99.90;;;;;;5046199;28;20055;-71
2023/08/27 07:28:30;;;;;;;6.00;3.58;;;15.20;99.90;;;;;;5044628;28;20376;-71
2023/08/27 07:30:55;;;;;;;4.85;2.25;;;15.10;99.90;;;;;;5062162;28;20059;-72
2023/08/27 07:33:22;;;;;;;5.93;2.25;;;15.20;99.90;;;;;;5063592;28;20386;-71
2023/08/27 07:35:47;;;;;;;4.30;2.28;;;15.20;99.90;;;;;;5062413;28;20055;-70
2023/08/27 07:38:13;;;;;;;2.58;1.98;;;15.20;99.90;;;;;;5062781;28;20024;-72
2023/08/27 07:40:39;;;;;;;2.05;1.60;;;15.20;99.90;;;;;;5063149;28;20044;-71
2023/08/27 07:43:05;;;;;;;3.05;1.02;;;15.20;99.90;;;;;;5044888;28;20123;-71
2023/08/27 07:45:31;;;;;;;1.63;0.82;;;15.30;99.90;;;;;;5062775;28;20044;-71
2023/08/27 07:47:57;;;;;;;1.65;1.00;;;15.40;99.90;;;;;;5044371;28;20123;-71
2023/08/27 07:50:22;;;;;;;1.13;1.02;;;15.40;99.90;;;;;;5061560;28;20123;-71
2023/08/27 07:52:48;;;;;;;0.82;0.82;;;15.50;99.90;;;;;;5054942;28;20036;-71
2023/08/27 07:55:15;;;;;;;1.15;0.82;;;15.50;99.90;;;;;;5064711;28;20040;-73
2023/08/27 07:57:40;;;;;;;0.43;0.43;;;15.60;99.90;;;;;;5082865;28;20444;-71
2023/08/27 08:00:07;;;;;;;0.63;0.45;;;15.60;99.90;;;;;;5083035;28;20048;-71
2023/08/27 08:02:33;;;;;;;0.80;0.50;;;15.60;99.90;;;;;;5076596;28;20055;-72
2023/08/27 08:04:58;;;;;;;0.38;0.38;;;15.70;99.90;;;;;;5043701;28;20040;-72
2023/08/27 08:07:25;;;;;;;0.20;0.20;;;15.70;99.90;;;;;;5061915;28;20083;-71
2023/08/27 08:09:51;;;;;;;0.52;0.35;;;15.70;99.90;;;;;;5062352;28;20068;-71
2023/08/27 08:12:17;;;;;;;0.43;0.43;;;15.70;99.90;;;;;;5062253;28;20525;-70
2023/08/27 08:14:42;;;;;;;0.20;0.20;;;15.70;99.90;;;;;;5062755;28;20098;-72
2023/08/27 08:17:09;;;;;;;1.77;0.70;;;15.70;99.90;;;;;;5043911;28;20044;-73
2023/08/27 08:19:34;;;;;;;2.15;0.47;;;15.80;99.90;;;;;;5044573;28;20090;-71
2023/08/27 08:22:00;;;;;;;1.85;0.47;;;15.80;99.90;;;;;;5048745;28;20045;-71
2023/08/27 08:24:26;;;;;;;0.85;0.55;;;15.80;99.90;;;;;;5065829;28;20260;-70
2023/08/27 08:26:52;;;;;;;0.77;0.52;;;15.80;99.90;;;;;;5063273;28;20054;-72
2023/08/27 08:29:20;;;;;;;0.35;0.35;;;15.80;99.90;;;;;;5034281;28;20103;-71
2023/08/27 08:31:46;;;;;;;0.35;0.30;;;15.90;99.90;;;;;;5035481;28;20029;-71
2023/08/27 08:34:12;;;;;;;0.28;0.28;;;15.90;99.90;;;;;;5027278;28;20104;-71
2023/08/27 08:36:37;;;;;;;0.50;0.25;;;15.90;99.90;;;;;;5028734;28;20041;-75
2023/08/27 08:39:03;;;;;;;0.80;0.70;;;15.90;99.90;;;;;;5016596;28;20095;-71
2023/08/27 08:41:29;;;;;;;0.40;0.40;;;16.00;99.90;;;;;;5028459;28;20076;-71
2023/08/27 08:44:24;;;;;;;1.10;0.55;;;16.00;99.90;;;;;;5034581;28;20048;-72
2023/08/27 08:46:51;;;;;;;0.20;0.20;;;16.00;99.90;;;;;;5031157;28;20053;-70
2023/08/27 08:49:21;;;;;;;0.30;0.30;;;16.00;99.90;;;;;;5059091;28;20041;-71
2023/08/27 08:51:51;;;;;;;0.40;0.30;;;16.10;99.90;;;;;;5057593;28;20039;-73
2023/08/27 08:54:21;;;;;;;0.20;0.20;;;16.10;99.90;;;;;;5063682;28;20040;-72
2023/08/27 08:56:51;;;;;;;0.20;0.20;;;16.10;99.90;;;;;;5042625;28;20124;-72
2023/08/27 08:59:19;;;;;;;0.20;0.20;;;16.10;99.90;;;;;;5050808;28;20044;-71
2023/08/27 09:01:46;;;;;;;0.55;0.20;;;16.20;99.90;;;;;;5071441;28;20340;-70
2023/08/27 09:04:14;;;;;;;0.50;0.38;;;16.20;99.90;;;;;;5069370;28;20044;-72
2023/08/27 09:06:41;;;;;;;0.30;0.30;;;16.30;99.90;;;;;;5074885;28;20052;-74
2023/08/27 09:09:08;;;;;;;0.30;0.30;;;16.30;99.90;;;;;;5051857;28;20060;-71
2023/08/27 09:11:36;;;;;;;0.40;0.35;;;16.30;99.90;;;;;;5039756;28;20063;-73
2023/08/27 09:14:04;;;;;;;0.20;0.20;;;16.40;99.90;;;;;;5054389;28;20101;-73
2023/08/27 09:16:30;;;;;;;0.35;0.35;;;16.50;99.90;;;;;;5055453;28;20071;-74
2023/08/27 09:18:56;;;;;;;1.17;0.60;;;16.60;99.90;;;;;;5060054;28;20044;-71
2023/08/27 09:21:22;;;;;;;0.30;0.30;;;16.60;99.90;;;;;;5058242;28;20048;-74
2023/08/27 09:23:48;;;;;;;0.82;0.52;;;16.70;99.90;;;;;;5060713;28;20392;-71
2023/08/27 09:26:15;;;;;;;0.38;0.35;;;16.70;99.90;;;;;;5058049;28;20059;-73
2023/08/27 09:28:41;;;;;;;0.63;0.60;;;16.80;99.90;;;;;;5048003;28;20506;-69
2023/08/27 09:31:10;;;;;;;2.47;0.63;;;16.80;99.90;;;;;;5064995;28;20056;-71
2023/08/27 09:33:41;;;;;;;0.70;0.60;;;16.80;99.90;;;;;;5071135;28;20083;-71
2023/08/27 09:36:08;;;;;;;2.30;0.70;;;16.90;99.90;;;;;;5072892;28;20051;-73
2023/08/27 09:38:34;;;;;;;0.77;0.60;;;16.90;99.90;;;;;;5050162;28;20044;-70
2023/08/27 09:41:17;;;;;;;1.30;0.90;;;16.90;99.90;;;;;;5047257;28;20052;-72
2023/08/27 09:43:53;;;;;;;0.90;0.60;;;16.90;99.90;;;;;;5037578;28;20043;-71
2023/08/27 09:46:19;;;;;;;0.63;0.63;;;16.90;99.90;;;;;;5060643;28;20041;-71
2023/08/27 09:49:06;;;;;;;2.63;0.40;;;16.90;99.90;;;;;;5046694;28;20051;-71
2023/08/27 09:51:33;;;;;;;2.30;0.68;;;17.00;99.90;;;;;;5064974;28;20044;-72
2023/08/27 09:53:59;;;;;;;5.07;0.60;;;17.10;99.90;;;;;;5047140;28;20096;-69
2023/08/27 09:56:26;;;;;;;0.82;0.77;;;17.10;99.90;;;;;;5052625;28;20072;-72
2023/08/27 09:58:56;;;;;;;1.40;0.50;;;17.10;99.90;;;;;;5050754;28;20052;-71
2023/08/27 10:01:23;;;;;;;0.95;0.80;;;16.90;99.90;;;;;;5054169;28;20048;-70
2023/08/27 10:03:49;;;;;;;2.90;0.80;;;16.90;99.90;;;;;;5068938;28;20562;-70
2023/08/27 10:06:14;;;;;;;2.25;0.75;;;16.90;99.90;;;;;;5056766;28;20128;-72
2023/08/27 10:08:53;;;;;;;0.70;0.70;;;16.80;99.90;;;;;;5026653;28;20060;-70
2023/08/27 10:11:22;;;;;;;2.33;0.90;;;16.70;99.90;;;;;;5040880;28;20048;-72
2023/08/27 10:13:48;;;;;;;1.00;0.80;;;16.70;99.90;;;;;;5052180;28;20041;-70
2023/08/27 10:16:15;;;;;;;0.95;0.63;;;16.70;99.90;;;;;;5084360;28;20039;-71
2023/08/27 10:18:41;;;;;;;0.50;0.50;;;16.60;99.90;;;;;;5039972;28;20040;-71
2023/08/27 10:21:11;;;;;;;0.50;0.50;;;16.60;99.90;;;;;;5063945;28;20041;-70
2023/08/27 10:23:38;;;;;;;1.63;0.68;;;16.60;99.90;;;;;;5068201;28;20032;-72
2023/08/27 10:26:04;;;;;;;0.98;0.82;;;16.50;99.90;;;;;;5046857;28;20123;-72
2023/08/27 10:28:33;;;;;;;1.10;0.60;;;16.50;99.90;;;;;;5043156;28;20152;-69
2023/08/27 10:30:59;;;;;;;0.90;0.55;;;16.50;99.90;;;;;;5044989;28;20066;-72
2023/08/27 10:33:25;;;;;;;1.40;0.82;;;16.60;99.90;;;;;;5051592;28;20033;-71
2023/08/27 10:35:52;;;;;;;1.33;0.80;;;16.60;99.90;;;;;;5045841;28;20051;-71
2023/08/27 10:38:20;;;;;;;1.40;1.30;;;16.70;99.90;;;;;;5062042;28;20644;-71
2023/08/27 10:40:46;;;;;;;0.95;0.85;;;16.70;99.90;;;;;;5063456;28;20041;-71
2023/08/27 10:43:20;;;;;;;0.75;0.57;;;16.70;99.90;;;;;;5044049;28;20028;-71
2023/08/27 10:45:48;;;;;;;0.73;0.73;;;16.70;99.90;;;;;;5046343;28;20036;-71
2023/08/27 10:48:20;;;;;;;2.00;0.60;;;16.80;99.90;;;;;;5043958;28;20357;-73
2023/08/27 10:50:55;;;;;;;3.72;0.80;;;16.80;99.90;;;;;;5045528;28;20128;-71
2023/08/27 10:53:22;;;;;;;0.85;0.60;;;16.80;99.90;;;;;;5045069;28;20044;-72
2023/08/27 10:55:50;;;;;;;1.10;0.70;;;16.80;99.90;;;;;;5045321;28;20538;-71
2023/08/27 10:58:20;;;;;;;1.58;0.40;;;16.80;99.90;;;;;;5062665;28;20050;-72
2023/08/27 11:01:03;;;;;;;0.52;0.40;;;16.80;99.90;;;;;;5043822;28;20040;-74
2023/08/27 11:03:59;;;;;;;1.48;0.90;;;16.70;99.90;;;;;;5043355;28;20437;-71
2023/08/27 11:06:44;;;;;;;4.20;0.95;;;16.60;99.90;;;;;;5022123;28;20076;-71
2023/08/27 11:09:16;;;;;;;2.92;0.50;;;16.50;99.90;;;;;;5038462;28;20029;-71
2023/08/27 11:11:47;;;;;;;;;;;16.40;99.90;;;;;;5040824;28;20057;-72
2023/08/27 11:14:15;;;;;;;0.75;0.40;;;16.20;99.90;;;;;;5041247;28;19921;-72
2023/08/27 11:16:53;;;;;;;1.45;0.30;;;16.20;99.90;;;;;;5041462;28;20044;-70
2023/08/27 11:19:35;;;;;;;0.63;0.30;;;16.10;99.90;;;;;;5041521;28;20045;-73
2023/08/27 11:22:09;;;;;;;0.20;0.20;;;16.00;99.90;;;;;;5041386;28;20051;-72
2023/08/27 11:24:38;;;;;;;0.98;0.30;;;15.90;99.90;;;;;;5043297;28;20159;-71
2023/08/27 11:27:05;;;;;;;0.40;0.22;;;15.90;99.90;;;;;;5033898;28;20041;-72
2023/08/27 11:29:33;;;;;;;0.60;0.55;;;15.80;99.90;;;;;;5047620;28;20396;-72
2023/08/27 11:32:03;;;;;;;1.65;0.40;;;15.80;99.90;;;;;;5033929;28;20094;-72
2023/08/27 11:34:38;;;;;;;3.03;0.63;;;15.80;99.90;;;;;;5036841;28;20049;-74
2023/08/27 11:37:04;;;;;;;1.38;0.50;;;15.80;99.90;;;;;;5041319;28;20041;-74
2023/08/27 11:39:30;;;;;;;1.30;0.38;;;15.80;99.90;;;;;;5041209;28;20045;-71
2023/08/27 11:41:56;;;;;;;2.08;0.65;;;15.80;99.90;;;;;;5041170;28;20094;-75
2023/08/27 11:44:22;;;;;;;1.10;0.38;;;15.90;99.90;;;;;;5041187;28;20392;-72
2023/08/27 11:46:47;;;;;;;2.30;0.77;;;15.90;99.90;;;;;;5024485;28;20041;-72
2023/08/27 11:49:14;;;;;;;1.63;0.60;;;15.90;99.90;;;;;;5041841;28;20033;-73
2023/08/27 11:51:41;;;;;;;1.52;0.30;;;16.00;99.90;;;;;;5041773;28;20049;-72
2023/08/27 11:54:08;;;;;;;0.38;0.38;;;16.10;99.90;;;;;;5042065;28;20051;-71
2023/08/27 11:56:37;;;;;;;0.75;0.43;;;16.20;99.90;;;;;;5043836;28;20041;-73
2023/08/27 11:59:06;;;;;;;1.10;0.50;;;16.30;99.90;;;;;;5028944;28;20045;-72
2023/08/27 12:01:33;;;;;;;0.73;0.50;;;16.40;99.90;;;;;;5044427;28;20044;-72
2023/08/27 12:03:59;;;;;;;1.35;0.50;;;16.50;99.90;;;;;;5032553;28;20033;-71
2023/08/27 12:06:26;;;;;;;0.25;0.20;;;16.50;99.90;;;;;;5051102;28;20064;-72
2023/08/27 12:08:53;;;;;;;0.77;0.30;;;16.60;99.90;;;;;;5044260;28;20049;-73
2023/08/27 12:11:23;;;;;;;0.52;0.52;;;16.60;99.90;;;;;;5045823;28;20611;-73
2023/08/27 12:13:53;;;;;;;0.77;0.32;;;16.60;99.90;;;;;;5032483;28;20064;-73
2023/08/27 12:16:30;;;;;;;0.20;0.20;;;16.70;99.90;;;;;;5045765;28;20057;-72
2023/08/27 12:19:22;;;;;;;3.20;0.43;;;16.70;99.90;;;;;;5043607;28;20068;-71
2023/08/27 12:21:53;;;;;;;0.75;0.50;;;16.70;99.90;;;;;;5041012;28;20056;-72
2023/08/27 12:24:30;;;;;;;0.63;0.60;;;16.80;99.90;;;;;;5052842;28;20090;-73
2023/08/27 12:26:58;;;;;;;0.45;0.30;;;16.80;99.90;;;;;;5052565;28;20484;-73
2023/08/27 12:29:30;;;;;;;3.60;0.38;;;16.70;99.90;;;;;;5048884;28;20041;-73
2023/08/27 12:31:56;;;;;;;;;;;16.80;99.90;;;;;;5061108;28;20386;-70
2023/08/27 12:34:33;;;;;;;1.50;0.95;;;16.80;99.90;;;;;;5042725;28;19921;-72
2023/08/27 12:36:59;;;;;;;2.00;0.93;;;16.90;99.90;;;;;;5044618;28;20120;-71
2023/08/27 12:39:25;;;;;;;0.75;0.47;;;16.90;99.90;;;;;;5029935;28;20124;-72
2023/08/27 12:41:50;;;;;;;1.88;0.82;;;17.00;99.90;;;;;;5044980;28;20049;-75
2023/08/27 12:44:16;;;;;;;3.10;0.32;;;17.00;99.90;;;;;;5044113;28;20033;-71
2023/08/27 12:46:41;;;;;;;2.15;0.57;;;17.00;99.90;;;;;;5044216;28;20041;-73